createdAt,value
2022-10-01T00:01:05.076Z,83.18
2022-10-01T00:03:33.038Z,82.99
2022-10-01T00:06:11.571Z,84.16
2022-10-01T00:08:40.017Z,83.41
2022-10-01T00:11:09.289Z,82.29
2022-10-01T00:13:36.774Z,82.40
2022-10-01T00:16:08.839Z,83.69
2022-10-01T00:18:37.723Z,84.45
2022-10-01T00:21:18.457Z,84.22
2022-10-01T00:23:46.341Z,83.28
2022-10-01T00:26:18.460Z,83.96
2022-10-01T00:28:46.568Z,84.08
2022-10-01T00:31:14.494Z,84.61
2022-10-01T00:33:42.321Z,83.60
2022-10-01T00:36:10.080Z,82.79
2022-10-01T00:38:38.156Z,82.39
2022-10-01T00:41:05.293Z,83.83
2022-10-01T00:43:34.186Z,84.34
2022-10-01T00:46:05.704Z,85.73
2022-10-01T00:48:35.140Z,85.99
2022-10-01T00:51:02.113Z,85.32
2022-10-01T00:53:29.165Z,85.24
2022-10-01T00:55:57.457Z,85.71
2022-10-01T00:58:24.463Z,85.61
2022-10-01T01:00:51.534Z,84.08
2022-10-01T01:03:18.602Z,83.18
2022-10-01T01:05:47.886Z,83.55
2022-10-01T01:08:14.769Z,84.71
2022-10-01T01:10:57.310Z,85.72
2022-10-01T01:13:29.768Z,84.96
2022-10-01T01:16:03.783Z,85.43
2022-10-01T01:18:35.654Z,85.85
2022-10-01T01:21:17.970Z,85.96
2022-10-01T01:23:44.899Z,84.24
2022-10-01T01:26:28.945Z,84.79
2022-10-01T01:28:59.708Z,86.67
2022-10-01T01:31:32.915Z,87.93
2022-10-01T01:34:00.225Z,86.07
2022-10-01T01:36:29.887Z,84.90
2022-10-01T01:38:59.359Z,84.62
2022-10-01T01:41:29.431Z,84.81
2022-10-01T01:43:57.703Z,85.25
2022-10-01T01:46:32.211Z,83.90
2022-10-01T01:49:00.630Z,83.75
2022-10-01T01:51:59.376Z,84.50
2022-10-01T01:54:26.192Z,85.54
2022-10-01T01:56:54.035Z,84.71
2022-10-01T01:59:21.089Z,83.46
2022-10-01T02:01:49.728Z,83.05
2022-10-01T02:04:27.466Z,83.78
2022-10-01T02:07:09.767Z,84.91
2022-10-01T02:09:58.316Z,84.27
2022-10-01T02:12:31.633Z,83.62
2022-10-01T02:15:08.293Z,83.89
2022-10-01T02:17:43.289Z,84.46
2022-10-01T02:20:30.017Z,84.68
2022-10-01T02:23:03.767Z,83.50
2022-10-01T02:25:34.746Z,83.68
2022-10-01T02:28:06.301Z,84.97
2022-10-01T02:30:35.836Z,85.63
2022-10-01T02:33:03.916Z,83.97
2022-10-01T02:35:31.768Z,83.99
2022-10-01T02:37:59.721Z,84.72
2022-10-01T02:40:27.608Z,85.16
2022-10-01T02:42:56.585Z,84.48
2022-10-01T02:45:23.855Z,82.90
2022-10-01T02:47:57.386Z,82.93
2022-10-01T02:50:24.889Z,83.60
2022-10-01T02:53:01.022Z,84.41
2022-10-01T02:55:30.339Z,83.70
2022-10-01T02:57:57.523Z,82.54
2022-10-01T03:00:27.235Z,82.70
2022-10-01T03:02:54.546Z,83.36
2022-10-01T03:05:21.809Z,84.20
2022-10-01T03:07:48.815Z,83.76
2022-10-01T03:10:16.442Z,82.25
2022-10-01T03:12:45.310Z,81.86
2022-10-01T03:15:13.301Z,82.75
2022-10-01T03:17:40.551Z,83.48
2022-10-01T03:20:08.234Z,84.31
2022-10-01T03:22:35.262Z,83.22
2022-10-01T03:25:02.271Z,82.49
2022-10-01T03:27:29.355Z,82.95
2022-10-01T03:29:56.401Z,84.67
2022-10-01T03:32:23.356Z,85.17
2022-10-01T03:34:50.394Z,83.57
2022-10-01T03:37:17.367Z,82.93
2022-10-01T03:39:44.642Z,83.88
2022-10-01T03:42:11.684Z,84.75
2022-10-01T03:44:38.798Z,84.26
2022-10-01T03:47:05.842Z,82.72
2022-10-01T03:49:33.969Z,82.86
2022-10-01T03:52:01.167Z,83.83
2022-10-01T03:54:30.667Z,85.08
2022-10-01T03:56:57.833Z,84.93
2022-10-01T03:59:26.501Z,83.47
2022-10-01T04:01:54.426Z,83.16
2022-10-01T04:04:21.412Z,84.54
2022-10-01T04:06:49.084Z,85.67
2022-10-01T04:09:15.961Z,84.98
2022-10-01T04:11:42.963Z,83.05
2022-10-01T04:14:10.040Z,82.70
2022-10-01T04:16:37.106Z,83.18
2022-10-01T04:19:04.784Z,84.00
2022-10-01T04:21:32.035Z,84.77
2022-10-01T04:24:00.051Z,84.68
2022-10-01T04:26:27.299Z,82.85
2022-10-01T04:28:54.342Z,81.79
2022-10-01T04:31:27.598Z,82.43
2022-10-01T04:33:56.064Z,83.25
2022-10-01T04:36:24.089Z,84.05
2022-10-01T04:38:59.360Z,84.00
2022-10-01T04:41:31.093Z,82.29
2022-10-01T04:44:00.444Z,82.35
2022-10-01T04:46:29.976Z,83.12
2022-10-01T04:48:57.180Z,83.71
2022-10-01T04:51:24.528Z,83.80
2022-10-01T04:53:51.526Z,83.18
2022-10-01T04:56:18.703Z,81.04
2022-10-01T04:58:46.050Z,81.39
2022-10-01T05:01:13.077Z,81.28
2022-10-01T05:03:40.142Z,81.22
2022-10-01T05:06:07.139Z,82.34
2022-10-01T05:08:34.137Z,81.46
2022-10-01T05:11:01.181Z,80.40
2022-10-01T05:13:30.506Z,80.37
2022-10-01T05:15:58.843Z,80.82
2022-10-01T05:18:25.881Z,81.70
2022-10-01T05:20:52.859Z,82.88
2022-10-01T05:23:19.915Z,82.09
2022-10-01T05:25:47.267Z,80.99
2022-10-01T05:28:19.847Z,80.59
2022-10-01T05:30:49.439Z,80.75
2022-10-01T05:33:16.612Z,81.92
2022-10-01T05:35:43.950Z,81.87
2022-10-01T05:38:10.989Z,80.53
2022-10-01T05:40:37.963Z,80.40
2022-10-01T05:43:04.985Z,80.50
2022-10-01T05:45:32.015Z,81.24
2022-10-01T05:48:03.489Z,82.00
2022-10-01T05:50:32.052Z,81.04
2022-10-01T05:52:59.839Z,80.09
2022-10-01T05:55:27.293Z,80.18
2022-10-01T05:58:13.280Z,80.25
2022-10-01T06:00:41.256Z,81.11
2022-10-01T06:03:08.488Z,80.73
2022-10-01T06:05:35.960Z,79.15
2022-10-01T06:08:05.425Z,78.80
2022-10-01T06:10:32.405Z,79.56
2022-10-01T06:13:03.035Z,79.86
2022-10-01T06:15:30.414Z,80.85
2022-10-01T06:18:02.383Z,79.69
2022-10-01T06:20:29.404Z,78.60
2022-10-01T06:22:57.490Z,78.11
2022-10-01T06:25:25.544Z,78.16
2022-10-01T06:27:55.681Z,78.70
2022-10-01T06:30:22.820Z,79.64
2022-10-01T06:32:49.961Z,78.80
2022-10-01T06:35:16.928Z,77.22
2022-10-01T06:37:43.954Z,77.17
2022-10-01T06:40:11.043Z,77.42
2022-10-01T06:42:38.151Z,77.22
2022-10-01T06:45:06.113Z,78.47
2022-10-01T06:47:33.111Z,78.21
2022-10-01T06:50:00.136Z,75.66
2022-10-01T06:52:45.908Z,75.84
2022-10-01T06:55:16.477Z,76.14
2022-10-01T06:57:44.102Z,76.20
2022-10-01T07:00:12.611Z,77.20
2022-10-01T07:02:41.522Z,77.92
2022-10-01T07:05:09.345Z,76.79
2022-10-01T07:07:37.501Z,76.10
2022-10-01T07:10:06.334Z,76.72
2022-10-01T07:12:34.673Z,77.68
2022-10-01T07:15:02.113Z,78.32
2022-10-01T07:17:29.012Z,77.05
2022-10-01T07:19:56.018Z,75.88
2022-10-01T07:22:24.499Z,75.46
2022-10-01T07:24:52.234Z,75.69
2022-10-01T07:27:19.698Z,76.30
2022-10-01T07:29:47.040Z,77.52
2022-10-01T07:32:15.043Z,78.68
2022-10-01T07:34:42.022Z,77.81
2022-10-01T07:37:09.367Z,75.42
2022-10-01T07:39:37.097Z,75.75
2022-10-01T07:42:04.502Z,76.98
2022-10-01T07:44:31.713Z,78.21
2022-10-01T07:46:59.066Z,79.31
2022-10-01T07:49:26.128Z,78.51
2022-10-01T07:51:54.701Z,77.56
2022-10-01T07:54:22.618Z,77.90
2022-10-01T07:56:53.033Z,78.26
2022-10-01T07:59:20.242Z,79.41
2022-10-01T08:01:51.962Z,80.79
2022-10-01T08:04:38.820Z,79.72
2022-10-01T08:07:06.933Z,77.84
2022-10-01T08:09:34.240Z,77.14
2022-10-01T08:12:03.041Z,77.58
2022-10-01T08:14:30.630Z,78.65
2022-10-01T08:16:57.839Z,80.16
2022-10-01T08:19:25.514Z,79.44
2022-10-01T08:21:53.048Z,78.15
2022-10-01T08:24:20.350Z,78.44
2022-10-01T08:26:53.456Z,79.11
2022-10-01T08:29:20.756Z,80.68
2022-10-01T08:31:48.073Z,80.05
2022-10-01T08:34:15.463Z,79.15
2022-10-01T08:36:42.649Z,79.10
2022-10-01T08:39:09.681Z,79.10
2022-10-01T08:41:43.978Z,80.28
2022-10-01T08:44:27.970Z,81.43
2022-10-01T08:47:00.970Z,80.08
2022-10-01T08:49:35.477Z,79.35
2022-10-01T08:52:06.582Z,79.39
2022-10-01T08:54:42.971Z,79.73
2022-10-01T08:57:13.268Z,79.99
2022-10-01T08:59:49.323Z,79.73
2022-10-01T09:02:21.241Z,78.61
2022-10-01T09:04:49.859Z,79.40
2022-10-01T09:07:42.013Z,79.48
2022-10-01T09:10:37.041Z,80.76
2022-10-01T09:13:36.167Z,82.22
2022-10-01T09:16:10.240Z,80.00
2022-10-01T09:18:48.027Z,79.06
2022-10-01T09:21:37.499Z,79.06
2022-10-01T09:24:10.353Z,79.86
2022-10-01T09:26:37.323Z,81.25
2022-10-01T09:29:04.309Z,80.38
2022-10-01T09:31:36.744Z,80.15
2022-10-01T09:34:11.570Z,80.25
2022-10-01T09:36:57.464Z,81.25
2022-10-01T09:39:30.616Z,82.40
2022-10-01T09:41:58.516Z,81.33
2022-10-01T09:44:28.301Z,80.87
2022-10-01T09:46:58.347Z,81.61
2022-10-01T09:49:39.683Z,82.67
2022-10-01T09:52:35.401Z,83.34
2022-10-01T09:55:03.680Z,81.85
2022-10-01T09:57:38.783Z,82.06
2022-10-01T10:00:16.093Z,82.06
2022-10-01T10:02:48.788Z,83.33
2022-10-01T10:05:27.096Z,82.53
2022-10-01T10:08:03.737Z,81.04
2022-10-01T10:10:39.775Z,81.44
2022-10-01T10:13:10.916Z,82.22
2022-10-01T10:15:41.427Z,82.98
2022-10-01T10:18:12.280Z,81.98
2022-10-01T10:20:40.662Z,80.43
2022-10-01T10:23:09.315Z,81.72
2022-10-01T10:25:36.530Z,82.00
2022-10-01T10:28:04.499Z,82.75
2022-10-01T10:30:31.919Z,81.89
2022-10-01T10:33:05.725Z,80.82
2022-10-01T10:35:32.760Z,81.31
2022-10-01T10:37:59.738Z,81.82
2022-10-01T10:40:29.938Z,82.67
2022-10-01T10:42:58.121Z,82.26
2022-10-01T10:45:33.360Z,80.01
2022-10-01T10:48:00.707Z,80.80
2022-10-01T10:50:30.140Z,81.36
2022-10-01T10:52:58.085Z,82.10
2022-10-01T10:55:31.256Z,82.12
2022-10-01T10:58:16.798Z,80.66
2022-10-01T11:00:48.473Z,80.04
2022-10-01T11:03:17.091Z,79.95
2022-10-01T11:05:44.767Z,81.36
2022-10-01T11:08:20.814Z,80.11
2022-10-01T11:10:57.073Z,78.76
2022-10-01T11:13:49.930Z,79.27
2022-10-01T11:16:29.736Z,80.08
2022-10-01T11:19:05.769Z,80.02
2022-10-01T11:21:58.324Z,79.43
2022-10-01T11:24:47.448Z,77.35
2022-10-01T11:27:38.152Z,76.60
2022-10-01T11:30:09.659Z,77.39
2022-10-01T11:32:51.392Z,78.10
2022-10-01T11:35:24.252Z,76.88
2022-10-01T11:38:00.940Z,76.18
2022-10-01T11:40:33.472Z,75.58
2022-10-01T11:43:03.106Z,76.02
2022-10-01T11:45:38.437Z,77.43
2022-10-01T11:48:08.031Z,77.59
2022-10-01T11:50:39.261Z,76.57
2022-10-01T11:53:31.202Z,75.21
2022-10-01T11:56:21.964Z,73.26
2022-10-01T11:59:07.445Z,73.77
2022-10-01T12:01:51.614Z,74.71
2022-10-01T12:04:39.352Z,75.82
2022-10-01T12:07:22.422Z,76.85
2022-10-01T12:09:53.084Z,75.27
2022-10-01T12:12:23.469Z,74.56
2022-10-01T12:15:07.108Z,74.40
2022-10-01T12:17:35.517Z,75.86
2022-10-01T12:20:02.780Z,76.25
2022-10-01T12:22:31.407Z,77.00
2022-10-01T12:24:58.399Z,75.90
2022-10-01T12:27:31.603Z,74.55
2022-10-01T12:30:12.269Z,73.98
2022-10-01T12:32:51.521Z,73.92
2022-10-01T12:35:18.543Z,74.66
2022-10-01T12:38:10.702Z,75.90
2022-10-01T12:40:54.527Z,73.94
2022-10-01T12:43:31.732Z,72.88
2022-10-01T12:46:14.339Z,72.38
2022-10-01T12:48:54.925Z,72.31
2022-10-01T12:51:28.312Z,72.76
2022-10-01T12:54:12.704Z,72.52
2022-10-01T12:56:43.054Z,73.18
2022-10-01T12:59:32.116Z,72.10
2022-10-01T13:02:20.775Z,70.31
2022-10-01T13:05:02.083Z,69.66
2022-10-01T13:07:47.231Z,70.23
2022-10-01T13:10:42.035Z,71.33
2022-10-01T13:13:17.367Z,73.24
2022-10-01T13:15:47.877Z,74.37
2022-10-01T13:18:36.790Z,74.23
2022-10-01T13:21:30.588Z,73.77
2022-10-01T13:24:17.800Z,73.93
2022-10-01T13:26:51.970Z,75.34
2022-10-01T13:29:44.168Z,76.22
2022-10-01T13:32:32.395Z,76.78
2022-10-01T13:35:18.589Z,76.40
2022-10-01T13:37:45.562Z,74.94
2022-10-01T13:40:29.122Z,74.56
2022-10-01T13:43:02.957Z,75.26
2022-10-01T13:45:39.391Z,75.81
2022-10-01T13:48:07.994Z,77.24
2022-10-01T13:50:34.996Z,78.13
2022-10-01T13:53:17.409Z,77.82
2022-10-01T13:55:45.522Z,75.98
2022-10-01T13:58:39.994Z,75.54
2022-10-01T14:01:21.397Z,76.63
2022-10-01T14:04:19.286Z,77.88
2022-10-01T14:06:55.618Z,79.22
2022-10-01T14:09:34.852Z,77.77
2022-10-01T14:12:26.257Z,77.07
2022-10-01T14:15:15.226Z,77.29
2022-10-01T14:17:43.834Z,76.92
2022-10-01T14:20:18.258Z,78.02
2022-10-01T14:23:04.092Z,79.36
2022-10-01T14:26:02.502Z,78.27
2022-10-01T14:28:54.226Z,77.11
2022-10-01T14:31:50.907Z,77.02
2022-10-01T14:34:39.521Z,77.03
2022-10-01T14:37:08.503Z,78.59
2022-10-01T14:39:35.668Z,79.87
2022-10-01T14:42:16.474Z,79.77
2022-10-01T14:44:47.679Z,78.01
2022-10-01T14:47:25.274Z,77.32
2022-10-01T14:49:52.508Z,77.44
2022-10-01T14:52:30.358Z,78.08
2022-10-01T14:54:58.723Z,79.44
2022-10-01T14:57:36.105Z,79.24
2022-10-01T15:00:09.367Z,77.74
2022-10-01T15:02:43.640Z,77.00
2022-10-01T15:05:29.991Z,77.16
2022-10-01T15:07:57.155Z,77.55
2022-10-01T15:10:27.588Z,78.18
2022-10-01T15:12:55.234Z,78.25
2022-10-01T15:15:25.717Z,76.87
2022-10-01T15:17:52.718Z,76.26
2022-10-01T15:20:19.635Z,76.34
2022-10-01T15:22:48.243Z,76.72
2022-10-01T15:25:20.986Z,77.14
2022-10-01T15:27:49.286Z,78.16
2022-10-01T15:30:18.481Z,78.21
2022-10-01T15:32:49.028Z,76.93
2022-10-01T15:35:19.104Z,76.57
2022-10-01T15:37:50.104Z,76.94
2022-10-01T15:40:27.534Z,77.63
2022-10-01T15:43:24.540Z,78.41
2022-10-01T15:46:10.048Z,79.48
2022-10-01T15:48:38.316Z,79.00
2022-10-01T15:51:26.116Z,77.56
2022-10-01T15:53:53.209Z,77.23
2022-10-01T15:56:21.853Z,77.58
2022-10-01T15:58:54.533Z,78.22
2022-10-01T16:01:23.771Z,79.14
2022-10-01T16:04:02.768Z,79.08
2022-10-01T16:06:35.339Z,77.69
2022-10-01T16:09:22.163Z,77.36
2022-10-01T16:12:01.691Z,77.62
2022-10-01T16:14:47.446Z,78.63
2022-10-01T16:17:17.797Z,79.36
2022-10-01T16:19:45.974Z,79.26
2022-10-01T16:22:14.854Z,77.91
2022-10-01T16:24:43.753Z,77.68
2022-10-01T16:27:14.182Z,78.13
2022-10-01T16:29:41.178Z,78.78
2022-10-01T16:32:11.570Z,79.45
2022-10-01T16:34:38.636Z,79.59
2022-10-01T16:37:07.005Z,78.35
2022-10-01T16:39:34.134Z,77.92
2022-10-01T16:42:22.691Z,78.20
2022-10-01T16:44:50.015Z,78.95
2022-10-01T16:47:17.186Z,79.54
2022-10-01T16:49:52.657Z,79.77
2022-10-01T16:52:19.658Z,78.41
2022-10-01T16:54:47.753Z,78.05
2022-10-01T16:57:18.073Z,78.06
2022-10-01T16:59:45.224Z,78.51
2022-10-01T17:02:13.253Z,79.37
2022-10-01T17:04:41.156Z,79.45
2022-10-01T17:07:08.203Z,78.36
2022-10-01T17:09:35.155Z,77.98
2022-10-01T17:12:02.381Z,78.37
2022-10-01T17:14:29.456Z,78.70
2022-10-01T17:16:56.675Z,79.59
2022-10-01T17:19:24.783Z,79.75
2022-10-01T17:21:51.924Z,78.41
2022-10-01T17:24:18.998Z,78.24
2022-10-01T17:26:46.126Z,78.56
2022-10-01T17:29:13.525Z,79.73
2022-10-01T17:31:41.167Z,80.85
2022-10-01T17:34:08.700Z,80.58
2022-10-01T17:36:35.889Z,78.82
2022-10-01T17:39:03.406Z,79.28
2022-10-01T17:41:30.644Z,79.86
2022-10-01T17:43:58.122Z,81.02
2022-10-01T17:46:25.264Z,83.44
2022-10-01T17:48:52.647Z,82.63
2022-10-01T17:51:20.921Z,80.64
2022-10-01T17:53:48.291Z,79.30
2022-10-01T17:56:16.932Z,79.59
2022-10-01T17:58:45.583Z,80.29
2022-10-01T18:01:20.184Z,80.89
2022-10-01T18:03:47.514Z,80.95
2022-10-01T18:06:15.680Z,79.61
2022-10-01T18:08:57.882Z,78.90
2022-10-01T18:11:26.252Z,78.79
2022-10-01T18:13:53.426Z,79.34
2022-10-01T18:16:20.935Z,80.18
2022-10-01T18:19:51.951Z,80.37
2022-10-01T18:21:36.230Z,78.50
2022-10-01T18:24:04.753Z,78.81
2022-10-01T18:26:33.215Z,79.24
2022-10-01T18:29:00.803Z,79.85
2022-10-01T18:31:33.665Z,80.46
2022-10-01T18:34:01.936Z,81.05
2022-10-01T18:36:47.838Z,80.20
2022-10-01T18:39:21.545Z,80.54
2022-10-01T18:41:48.573Z,80.57
2022-10-01T18:44:20.268Z,80.88
2022-10-01T18:46:50.850Z,83.45
2022-10-01T18:49:28.353Z,83.48
2022-10-01T18:52:07.230Z,82.44
2022-10-01T18:54:37.795Z,81.73
2022-10-01T18:57:08.031Z,82.01
2022-10-01T18:59:38.209Z,82.37
2022-10-01T19:02:26.598Z,82.88
2022-10-01T19:05:01.841Z,82.63
2022-10-01T19:08:02.711Z,80.49
2022-10-01T19:10:54.821Z,80.19
2022-10-01T19:13:28.153Z,80.66
2022-10-01T19:16:04.278Z,81.82
2022-10-01T19:18:43.555Z,82.71
2022-10-01T19:21:19.618Z,82.66
2022-10-01T19:24:05.249Z,82.72
2022-10-01T19:26:45.096Z,80.75
2022-10-01T19:29:20.448Z,80.92
2022-10-01T19:32:03.095Z,81.82
2022-10-01T19:34:41.669Z,82.22
2022-10-01T19:37:23.254Z,82.91
2022-10-01T19:39:51.747Z,82.28
2022-10-01T19:42:27.485Z,81.79
2022-10-01T19:44:57.872Z,83.10
2022-10-01T19:47:27.836Z,82.80
2022-10-01T19:49:57.493Z,84.61
2022-10-01T19:52:24.688Z,84.70
2022-10-01T19:54:54.518Z,83.00
2022-10-01T19:57:26.466Z,82.18
2022-10-01T19:59:55.557Z,82.54
2022-10-01T20:02:37.250Z,83.07
2022-10-01T20:05:16.337Z,83.47
2022-10-01T20:08:01.023Z,82.85
2022-10-01T20:10:38.882Z,80.95
2022-10-01T20:13:29.048Z,80.39
2022-10-01T20:15:56.091Z,80.83
2022-10-01T20:18:42.374Z,81.34
2022-10-01T20:21:34.340Z,82.58
2022-10-01T20:24:04.075Z,81.77
2022-10-01T20:26:37.919Z,81.23
2022-10-01T20:29:23.962Z,81.67
2022-10-01T20:32:11.852Z,82.61
2022-10-01T20:35:06.526Z,83.46
2022-10-01T20:37:52.525Z,82.71
2022-10-01T20:40:50.000Z,81.14
2022-10-01T20:43:31.792Z,80.81
2022-10-01T20:46:00.402Z,81.64
2022-10-01T20:48:33.934Z,82.61
2022-10-01T20:51:04.003Z,82.57
2022-10-01T20:53:39.047Z,81.13
2022-10-01T20:56:15.694Z,81.07
2022-10-01T20:59:02.316Z,81.51
2022-10-01T21:01:30.642Z,82.75
2022-10-01T21:04:05.481Z,83.75
2022-10-01T21:06:41.207Z,82.91
2022-10-01T21:09:25.318Z,81.75
2022-10-01T21:12:04.751Z,81.53
2022-10-01T21:14:34.767Z,82.33
2022-10-01T21:17:17.071Z,83.09
2022-10-01T21:19:49.034Z,82.65
2022-10-01T21:22:22.207Z,81.23
2022-10-01T21:25:10.782Z,81.06
2022-10-01T21:28:26.114Z,81.28
2022-10-01T21:31:11.289Z,81.95
2022-10-01T21:34:07.752Z,83.40
2022-10-01T21:36:44.590Z,82.12
2022-10-01T21:39:16.595Z,80.78
2022-10-01T21:42:03.020Z,80.71
2022-10-01T21:44:39.195Z,81.24
2022-10-01T21:47:15.344Z,81.78
2022-10-01T21:49:48.334Z,82.70
2022-10-01T21:52:40.787Z,82.22
2022-10-01T21:55:26.305Z,81.48
2022-10-01T21:58:13.180Z,81.32
2022-10-01T22:00:40.272Z,82.51
2022-10-01T22:03:23.325Z,84.34
2022-10-01T22:06:12.992Z,84.46
2022-10-01T22:11:21.315Z,83.57
2022-10-01T22:13:53.549Z,84.40
2022-10-01T22:16:20.659Z,84.71
2022-10-01T22:18:50.275Z,83.50
2022-10-01T22:21:25.083Z,81.50
2022-10-01T22:24:10.502Z,80.80
2022-10-01T22:26:41.149Z,81.16
2022-10-01T22:29:14.883Z,82.83
2022-10-01T22:31:41.989Z,83.31
2022-10-01T22:34:17.733Z,82.80
2022-10-01T22:36:54.707Z,81.16
2022-10-01T22:39:25.748Z,80.81
2022-10-01T22:42:06.795Z,82.51
2022-10-01T22:44:33.698Z,83.43
2022-10-01T22:47:04.473Z,83.20
2022-10-01T22:50:05.190Z,81.49
2022-10-01T22:52:44.431Z,81.41
2022-10-01T22:55:21.534Z,82.45
2022-10-01T22:57:51.502Z,83.67
2022-10-01T23:00:18.700Z,83.51
2022-10-01T23:02:52.603Z,82.46
2022-10-01T23:05:32.961Z,81.98
2022-10-01T23:08:29.301Z,82.49
2022-10-01T23:11:20.812Z,83.30
2022-10-01T23:14:01.731Z,82.77
2022-10-01T23:16:40.936Z,81.12
2022-10-01T23:19:37.460Z,81.57
2022-10-01T23:22:29.542Z,82.39
2022-10-01T23:25:02.693Z,83.50
2022-10-01T23:27:38.764Z,82.83
2022-10-01T23:30:35.119Z,80.86
2022-10-01T23:33:05.063Z,80.65
2022-10-01T23:35:35.415Z,81.06
2022-10-01T23:38:27.463Z,81.88
2022-10-01T23:40:55.814Z,83.19
2022-10-01T23:43:28.822Z,82.08
2022-10-01T23:46:18.116Z,81.31
2022-10-01T23:49:10.636Z,81.71
2022-10-01T23:51:56.782Z,82.78
2022-10-01T23:54:32.153Z,83.83
2022-10-01T23:57:04.434Z,82.22
2022-10-01T23:59:39.571Z,82.04
